sensor_id;sensor_type;location;lat;lon;timestamp;pressure;altitude;pressure_sealevel;temperature;humidity
64064;BME280;50314;50.618;10.642;2023-06-19T00:00:43;96392.16;;;24.77;22.05
64064;BME280;50314;50.618;10.642;2023-06-19T00:03:09;96394.66;;;24.79;22.03
64064;BME280;50314;50.618;10.642;2023-06-19T00:05:34;96392.97;;;24.78;22.00
64064;BME280;50314;50.618;10.642;2023-06-19T00:07:59;96402.09;;;24.77;22.11
64064;BME280;50314;50.618;10.642;2023-06-19T00:10:25;96396.94;;;24.75;22.07
64064;BME280;50314;50.618;10.642;2023-06-19T00:12:51;96386.34;;;24.74;22.26
64064;BME280;50314;50.618;10.642;2023-06-19T00:15:16;96380.97;;;24.74;22.07
64064;BME280;50314;50.618;10.642;2023-06-19T00:17:42;96380.16;;;24.73;21.88
64064;BME280;50314;50.618;10.642;2023-06-19T00:20:07;96371.44;;;24.71;22.05
64064;BME280;50314;50.618;10.642;2023-06-19T00:22:33;96367.94;;;24.71;22.13
64064;BME280;50314;50.618;10.642;2023-06-19T00:24:59;96367.94;;;24.71;22.38
64064;BME280;50314;50.618;10.642;2023-06-19T00:27:24;96368.16;;;24.69;22.20
64064;BME280;50314;50.618;10.642;2023-06-19T00:29:51;96368.97;;;24.70;22.32
64064;BME280;50314;50.618;10.642;2023-06-19T00:32:17;96371.84;;;24.68;22.25
64064;BME280;50314;50.618;10.642;2023-06-19T00:34:42;96365.66;;;24.68;22.27
64064;BME280;50314;50.618;10.642;2023-06-19T00:37:09;96370.44;;;24.66;22.12
64064;BME280;50314;50.618;10.642;2023-06-19T00:39:35;96364.22;;;24.65;22.08
64064;BME280;50314;50.618;10.642;2023-06-19T00:42:00;96366.06;;;24.65;22.26
64064;BME280;50314;50.618;10.642;2023-06-19T00:44:26;96374.16;;;24.65;22.15
64064;BME280;50314;50.618;10.642;2023-06-19T00:46:57;96366.50;;;24.61;22.25
64064;BME280;50314;50.618;10.642;2023-06-19T00:49:24;96371.88;;;24.61;22.42
64064;BME280;50314;50.618;10.642;2023-06-19T00:51:51;96371.06;;;24.61;22.19
64064;BME280;50314;50.618;10.642;2023-06-19T00:54:18;96373.75;;;24.61;22.28
64064;BME280;50314;50.618;10.642;2023-06-19T00:56:44;96365.91;;;24.59;22.61
64064;BME280;50314;50.618;10.642;2023-06-19T00:59:18;96366.53;;;24.55;22.51
64064;BME280;50314;50.618;10.642;2023-06-19T01:01:45;96365.06;;;24.59;22.52
64064;BME280;50314;50.618;10.642;2023-06-19T01:04:11;96368.78;;;24.58;22.37
64064;BME280;50314;50.618;10.642;2023-06-19T01:06:53;96364.03;;;24.53;22.50
64064;BME280;50314;50.618;10.642;2023-06-19T01:09:32;96359.28;;;24.55;22.66
64064;BME280;50314;50.618;10.642;2023-06-19T01:12:23;96350.41;;;24.48;22.82
64064;BME280;50314;50.618;10.642;2023-06-19T01:15:19;96346.81;;;24.48;22.63
64064;BME280;50314;50.618;10.642;2023-06-19T01:17:45;96353.28;;;24.53;22.68
64064;BME280;50314;50.618;10.642;2023-06-19T01:20:13;96347.06;;;24.53;22.65
64064;BME280;50314;50.618;10.642;2023-06-19T01:22:39;96355.13;;;24.53;22.58
64064;BME280;50314;50.618;10.642;2023-06-19T01:25:05;96353.50;;;24.52;22.52
64064;BME280;50314;50.618;10.642;2023-06-19T01:27:31;96348.31;;;24.50;22.50
64064;BME280;50314;50.618;10.642;2023-06-19T01:29:58;96344.78;;;24.50;22.31
64064;BME280;50314;50.618;10.642;2023-06-19T01:32:47;96342.91;;;24.44;22.58
64064;BME280;50314;50.618;10.642;2023-06-19T01:35:19;96334.25;;;24.48;22.74
64064;BME280;50314;50.618;10.642;2023-06-19T01:37:46;96337.09;;;24.47;22.64
64064;BME280;50314;50.618;10.642;2023-06-19T01:40:13;96333.81;;;24.45;22.79
64064;BME280;50314;50.618;10.642;2023-06-19T01:42:40;96338.34;;;24.44;22.98
64064;BME280;50314;50.618;10.642;2023-06-19T01:45:07;96341.25;;;24.43;22.96
64064;BME280;50314;50.618;10.642;2023-06-19T01:47:33;96334.22;;;24.42;22.77
64064;BME280;50314;50.618;10.642;2023-06-19T01:49:59;96331.53;;;24.42;22.46
64064;BME280;50314;50.618;10.642;2023-06-19T01:52:24;96335.25;;;24.41;22.75
64064;BME280;50314;50.618;10.642;2023-06-19T01:54:50;96337.94;;;24.41;22.63
64064;BME280;50314;50.618;10.642;2023-06-19T01:57:16;96332.56;;;24.41;22.70
64064;BME280;50314;50.618;10.642;2023-06-19T01:59:42;96335.47;;;24.39;22.62
64064;BME280;50314;50.618;10.642;2023-06-19T02:02:07;96342.72;;;24.38;22.78
64064;BME280;50314;50.618;10.642;2023-06-19T02:04:32;96332.97;;;24.37;22.98
64064;BME280;50314;50.618;10.642;2023-06-19T02:06:58;96339.22;;;24.38;22.57
64064;BME280;50314;50.618;10.642;2023-06-19T02:09:23;96334.00;;;24.36;22.79
64064;BME280;50314;50.618;10.642;2023-06-19T02:11:49;96329.44;;;24.37;22.55
64064;BME280;50314;50.618;10.642;2023-06-19T02:14:14;96331.31;;;24.36;22.64
64064;BME280;50314;50.618;10.642;2023-06-19T02:16:40;96325.94;;;24.36;22.44
64064;BME280;50314;50.618;10.642;2023-06-19T02:19:10;96325.94;;;24.36;22.56
64064;BME280;50314;50.618;10.642;2023-06-19T02:21:36;96327.00;;;24.35;22.65
64064;BME280;50314;50.618;10.642;2023-06-19T02:24:02;96323.47;;;24.35;22.43
64064;BME280;50314;50.618;10.642;2023-06-19T02:26:27;96328.00;;;24.34;22.34
64064;BME280;50314;50.618;10.642;2023-06-19T02:28:55;96321.81;;;24.34;22.77
64064;BME280;50314;50.618;10.642;2023-06-19T02:31:21;96323.66;;;24.33;22.60
64064;BME280;50314;50.618;10.642;2023-06-19T02:33:47;96329.28;;;24.32;23.04
64064;BME280;50314;50.618;10.642;2023-06-19T02:36:13;96326.59;;;24.32;22.79
64064;BME280;50314;50.618;10.642;2023-06-19T02:38:38;96328.66;;;24.30;22.69
64064;BME280;50314;50.618;10.642;2023-06-19T02:41:04;96325.13;;;24.29;22.56
64064;BME280;50314;50.618;10.642;2023-06-19T02:43:29;96334.25;;;24.28;23.12
64064;BME280;50314;50.618;10.642;2023-06-19T02:45:55;96331.56;;;24.28;22.58
64064;BME280;50314;50.618;10.642;2023-06-19T02:48:20;96325.53;;;24.26;22.81
64064;BME280;50314;50.618;10.642;2023-06-19T02:50:48;96326.59;;;24.25;22.96
64064;BME280;50314;50.618;10.642;2023-06-19T02:53:13;96329.28;;;24.25;22.94
64064;BME280;50314;50.618;10.642;2023-06-19T02:55:39;96328.66;;;24.23;22.94
64064;BME280;50314;50.618;10.642;2023-06-19T02:58:05;96334.03;;;24.23;22.81
64064;BME280;50314;50.618;10.642;2023-06-19T03:00:30;96335.09;;;24.22;23.14
64064;BME280;50314;50.618;10.642;2023-06-19T03:02:55;96335.50;;;24.19;23.04
64064;BME280;50314;50.618;10.642;2023-06-19T03:05:21;96330.13;;;24.19;22.96
64064;BME280;50314;50.618;10.642;2023-06-19T03:07:46;96330.94;;;24.20;22.96
64064;BME280;50314;50.618;10.642;2023-06-19T03:10:12;96326.59;;;24.19;23.20
64064;BME280;50314;50.618;10.642;2023-06-19T03:12:37;96331.97;;;24.19;23.25
64064;BME280;50314;50.618;10.642;2023-06-19T03:15:03;96327.63;;;24.18;23.18
64064;BME280;50314;50.618;10.642;2023-06-19T03:17:29;96316.84;;;24.18;22.92
64064;BME280;50314;50.618;10.642;2023-06-19T03:19:54;96322.47;;;24.16;22.80
64064;BME280;50314;50.618;10.642;2023-06-19T03:22:20;96328.88;;;24.15;22.88
64064;BME280;50314;50.618;10.642;2023-06-19T03:24:47;96320.00;;;24.14;22.94
64064;BME280;50314;50.618;10.642;2023-06-19T03:27:12;96329.72;;;24.15;22.85
64064;BME280;50314;50.618;10.642;2023-06-19T03:29:37;96327.22;;;24.14;23.07
64064;BME280;50314;50.618;10.642;2023-06-19T03:32:03;96331.75;;;24.13;22.70
64064;BME280;50314;50.618;10.642;2023-06-19T03:34:28;96339.00;;;24.13;23.01
64064;BME280;50314;50.618;10.642;2023-06-19T03:36:54;96342.75;;;24.12;23.03
64064;BME280;50314;50.618;10.642;2023-06-19T03:39:19;96337.38;;;24.12;23.30
64064;BME280;50314;50.618;10.642;2023-06-19T03:41:45;96337.38;;;24.12;23.12
64064;BME280;50314;50.618;10.642;2023-06-19T03:44:10;96337.16;;;24.13;23.25
64064;BME280;50314;50.618;10.642;2023-06-19T03:46:35;96330.94;;;24.13;23.04
64064;BME280;50314;50.618;10.642;2023-06-19T03:49:01;96339.00;;;24.13;22.98
64064;BME280;50314;50.618;10.642;2023-06-19T03:51:28;96333.44;;;24.14;23.28
64064;BME280;50314;50.618;10.642;2023-06-19T03:53:54;96333.84;;;24.11;23.27
64064;BME280;50314;50.618;10.642;2023-06-19T03:56:19;96328.47;;;24.11;23.07
64064;BME280;50314;50.618;10.642;2023-06-19T03:58:45;96334.88;;;24.10;23.30
64064;BME280;50314;50.618;10.642;2023-06-19T04:01:10;96324.34;;;24.09;22.74
64064;BME280;50314;50.618;10.642;2023-06-19T04:03:36;96330.75;;;24.08;22.89
64064;BME280;50314;50.618;10.642;2023-06-19T04:06:01;96321.84;;;24.07;22.96
64064;BME280;50314;50.618;10.642;2023-06-19T04:08:26;96344.22;;;24.08;23.45
64064;BME280;50314;50.618;10.642;2023-06-19T04:10:52;96344.22;;;24.08;22.96
64064;BME280;50314;50.618;10.642;2023-06-19T04:13:18;96350.41;;;24.08;23.53
64064;BME280;50314;50.618;10.642;2023-06-19T04:15:43;96351.22;;;24.09;22.96
64064;BME280;50314;50.618;10.642;2023-06-19T04:18:11;96351.22;;;24.09;23.04
64064;BME280;50314;50.618;10.642;2023-06-19T04:20:37;96352.88;;;24.10;22.85
64064;BME280;50314;50.618;10.642;2023-06-19T04:23:02;96342.13;;;24.10;23.02
64064;BME280;50314;50.618;10.642;2023-06-19T04:25:28;96348.31;;;24.10;23.22
64064;BME280;50314;50.618;10.642;2023-06-19T04:27:53;96349.19;;;24.11;23.05
64064;BME280;50314;50.618;10.642;2023-06-19T04:30:19;96354.34;;;24.12;22.83
64064;BME280;50314;50.618;10.642;2023-06-19T04:32:46;96358.66;;;24.13;23.37
64064;BME280;50314;50.618;10.642;2023-06-19T04:35:12;96361.34;;;24.13;22.97
64064;BME280;50314;50.618;10.642;2023-06-19T04:37:38;96362.19;;;24.14;23.02
64064;BME280;50314;50.618;10.642;2023-06-19T04:40:03;96360.94;;;24.17;23.20
64064;BME280;50314;50.618;10.642;2023-06-19T04:42:31;96358.06;;;24.18;23.39
64064;BME280;50314;50.618;10.642;2023-06-19T04:44:56;96354.09;;;24.14;23.26
64064;BME280;50314;50.618;10.642;2023-06-19T04:47:24;96353.91;;;24.22;23.11
64064;BME280;50314;50.618;10.642;2023-06-19T04:49:49;96358.25;;;24.23;23.34
64064;BME280;50314;50.618;10.642;2023-06-19T04:52:15;96361.56;;;24.25;23.04
64064;BME280;50314;50.618;10.642;2023-06-19T04:54:40;96348.72;;;24.27;23.08
64064;BME280;50314;50.618;10.642;2023-06-19T04:57:06;96363.84;;;24.28;23.28
64064;BME280;50314;50.618;10.642;2023-06-19T04:59:32;96357.41;;;24.29;22.88
64064;BME280;50314;50.618;10.642;2023-06-19T05:01:58;96359.91;;;24.24;23.19
64064;BME280;50314;50.618;10.642;2023-06-19T05:04:24;96368.59;;;24.33;22.81
64064;BME280;50314;50.618;10.642;2023-06-19T05:06:50;96364.84;;;24.34;23.12
64064;BME280;50314;50.618;10.642;2023-06-19T05:09:16;96364.66;;;24.35;22.90
64064;BME280;50314;50.618;10.642;2023-06-19T05:11:41;96365.47;;;24.36;23.22
64064;BME280;50314;50.618;10.642;2023-06-19T05:14:07;96378.72;;;24.37;22.97
64064;BME280;50314;50.618;10.642;2023-06-19T05:16:35;96370.66;;;24.37;23.02
64064;BME280;50314;50.618;10.642;2023-06-19T05:19:01;96370.22;;;24.41;22.88
64064;BME280;50314;50.618;10.642;2023-06-19T05:21:26;96377.28;;;24.42;23.28
64064;BME280;50314;50.618;10.642;2023-06-19T05:23:52;96395.09;;;24.43;23.14
64064;BME280;50314;50.618;10.642;2023-06-19T05:26:18;96396.72;;;24.44;23.39
64064;BME280;50314;50.618;10.642;2023-06-19T05:28:44;96393.22;;;24.43;23.04
64064;BME280;50314;50.618;10.642;2023-06-19T05:31:10;96400.25;;;24.44;22.97
64064;BME280;50314;50.618;10.642;2023-06-19T05:33:35;96397.56;;;24.44;22.97
64064;BME280;50314;50.618;10.642;2023-06-19T05:36:00;96399.41;;;24.44;23.25
64064;BME280;50314;50.618;10.642;2023-06-19T05:38:26;96399.41;;;24.44;22.85
64064;BME280;50314;50.618;10.642;2023-06-19T05:40:53;96396.72;;;24.44;22.90
64064;BME280;50314;50.618;10.642;2023-06-19T05:43:19;96400.47;;;24.43;23.40
64064;BME280;50314;50.618;10.642;2023-06-19T05:45:44;96405.84;;;24.43;23.03
64064;BME280;50314;50.618;10.642;2023-06-19T05:48:09;96410.41;;;24.42;23.17
64064;BME280;50314;50.618;10.642;2023-06-19T05:50:35;96410.59;;;24.41;23.06
64064;BME280;50314;50.618;10.642;2023-06-19T05:53:00;96404.41;;;24.40;23.05
64064;BME280;50314;50.618;10.642;2023-06-19T05:55:26;96419.72;;;24.39;22.89
64064;BME280;50314;50.618;10.642;2023-06-19T05:57:55;96415.38;;;24.38;22.79
64064;BME280;50314;50.618;10.642;2023-06-19T06:00:21;96421.38;;;24.41;22.79
64064;BME280;50314;50.618;10.642;2023-06-19T06:02:46;96424.06;;;24.41;23.01
64064;BME280;50314;50.618;10.642;2023-06-19T06:05:12;96421.38;;;24.41;22.74
64064;BME280;50314;50.618;10.642;2023-06-19T06:07:37;96425.94;;;24.40;22.60
64064;BME280;50314;50.618;10.642;2023-06-19T06:10:03;96414.56;;;24.38;22.48
64064;BME280;50314;50.618;10.642;2023-06-19T06:12:28;96418.25;;;24.37;22.16
64064;BME280;50314;50.618;10.642;2023-06-19T06:14:54;96420.97;;;24.37;22.54
64064;BME280;50314;50.618;10.642;2023-06-19T06:17:19;96422.63;;;24.38;22.40
64064;BME280;50314;50.618;10.642;2023-06-19T06:19:45;96425.09;;;24.39;22.47
64064;BME280;50314;50.618;10.642;2023-06-19T06:22:10;96431.13;;;24.42;22.00
64064;BME280;50314;50.618;10.642;2023-06-19T06:24:35;96434.41;;;24.44;22.27
64064;BME280;50314;50.618;10.642;2023-06-19T06:27:01;96435.66;;;24.48;22.11
64064;BME280;50314;50.618;10.642;2023-06-19T06:29:26;96431.56;;;24.52;21.97
64064;BME280;50314;50.618;10.642;2023-06-19T06:32:03;96439.41;;;24.53;22.32
64064;BME280;50314;50.618;10.642;2023-06-19T06:34:29;96443.75;;;24.61;21.67
64064;BME280;50314;50.618;10.642;2023-06-19T06:36:54;96443.97;;;24.66;21.71
64064;BME280;50314;50.618;10.642;2023-06-19T06:39:19;96452.22;;;24.71;21.39
64064;BME280;50314;50.618;10.642;2023-06-19T06:41:45;96452.84;;;24.73;21.46
64064;BME280;50314;50.618;10.642;2023-06-19T06:44:10;96455.13;;;24.76;21.19
64064;BME280;50314;50.618;10.642;2023-06-19T06:46:36;96458.00;;;24.81;21.21
64064;BME280;50314;50.618;10.642;2023-06-19T06:49:01;96451.38;;;24.84;20.94
64064;BME280;50314;50.618;10.642;2023-06-19T06:51:27;96455.09;;;24.90;20.70
64064;BME280;50314;50.618;10.642;2023-06-19T06:53:52;96460.06;;;24.93;20.76
64064;BME280;50314;50.618;10.642;2023-06-19T06:56:17;96462.34;;;24.96;20.81
64064;BME280;50314;50.618;10.642;2023-06-19T06:58:43;96460.88;;;25.00;20.75
64064;BME280;50314;50.618;10.642;2023-06-19T07:01:11;96468.56;;;25.03;20.71
64064;BME280;50314;50.618;10.642;2023-06-19T07:03:36;96469.56;;;25.08;20.50
64064;BME280;50314;50.618;10.642;2023-06-19T07:06:02;96462.94;;;25.11;20.49
64064;BME280;50314;50.618;10.642;2023-06-19T07:08:28;96465.22;;;25.14;20.36
64064;BME280;50314;50.618;10.642;2023-06-19T07:10:53;96464.38;;;25.20;20.23
64064;BME280;50314;50.618;10.642;2023-06-19T07:13:18;96459.38;;;25.24;19.78
64064;BME280;50314;50.618;10.642;2023-06-19T07:15:44;96457.09;;;25.27;19.58
64064;BME280;50314;50.618;10.642;2023-06-19T07:18:09;96458.31;;;25.31;19.82
64064;BME280;50314;50.618;10.642;2023-06-19T07:20:35;96468.06;;;25.39;19.74
64064;BME280;50314;50.618;10.642;2023-06-19T07:23:01;96464.88;;;25.49;19.62
64064;BME280;50314;50.618;10.642;2023-06-19T07:25:26;96466.13;;;25.60;19.74
64064;BME280;50314;50.618;10.642;2023-06-19T07:27:52;96464.00;;;25.68;19.36
64064;BME280;50314;50.618;10.642;2023-06-19T07:30:17;96464.78;;;25.75;19.87
64064;BME280;50314;50.618;10.642;2023-06-19T07:32:43;96468.47;;;25.88;19.73
64064;BME280;50314;50.618;10.642;2023-06-19T07:35:08;96476.28;;;25.96;19.45
64064;BME280;50314;50.618;10.642;2023-06-19T07:37:34;96474.19;;;26.05;19.71
64064;BME280;50314;50.618;10.642;2023-06-19T07:39:59;96484.50;;;26.14;19.87
64064;BME280;50314;50.618;10.642;2023-06-19T07:42:25;96475.94;;;26.24;19.57
64064;BME280;50314;50.618;10.642;2023-06-19T07:44:51;96476.31;;;26.28;19.44
64064;BME280;50314;50.618;10.642;2023-06-19T07:47:17;96481.28;;;26.31;19.58
64064;BME280;50314;50.618;10.642;2023-06-19T07:49:45;96471.09;;;26.33;19.50
64064;BME280;50314;50.618;10.642;2023-06-19T07:52:11;96474.78;;;26.38;19.27
64064;BME280;50314;50.618;10.642;2023-06-19T07:54:55;96472.28;;;26.37;19.12
64064;BME280;50314;50.618;10.642;2023-06-19T07:57:22;96477.44;;;26.45;19.07
64064;BME280;50314;50.618;10.642;2023-06-19T07:59:49;96469.06;;;26.53;19.63
64064;BME280;50314;50.618;10.642;2023-06-19T08:02:14;96475.69;;;26.57;19.42
64064;BME280;50314;50.618;10.642;2023-06-19T08:04:40;96474.22;;;26.61;19.64
64064;BME280;50314;50.618;10.642;2023-06-19T08:07:06;96476.25;;;26.66;19.25
64064;BME280;50314;50.618;10.642;2023-06-19T08:09:31;96479.50;;;26.75;19.36
64064;BME280;50314;50.618;10.642;2023-06-19T08:11:57;96480.03;;;26.83;19.53
64064;BME280;50314;50.618;10.642;2023-06-19T08:14:23;96486.81;;;26.92;19.61
64064;BME280;50314;50.618;10.642;2023-06-19T08:16:48;96483.81;;;27.01;19.62
64064;BME280;50314;50.618;10.642;2023-06-19T08:19:14;96495.81;;;27.11;19.76
64064;BME280;50314;50.618;10.642;2023-06-19T08:21:39;96494.00;;;27.24;19.45
64064;BME280;50314;50.618;10.642;2023-06-19T08:24:05;96491.81;;;27.32;19.74
64064;BME280;50314;50.618;10.642;2023-06-19T08:26:31;96493.22;;;27.35;19.67
64064;BME280;50314;50.618;10.642;2023-06-19T08:28:56;96488.44;;;27.37;19.69
64064;BME280;50314;50.618;10.642;2023-06-19T08:31:21;96492.56;;;27.39;19.15
64064;BME280;50314;50.618;10.642;2023-06-19T08:33:55;96484.22;;;27.41;19.43
64064;BME280;50314;50.618;10.642;2023-06-19T08:36:21;96483.41;;;27.40;19.18
64064;BME280;50314;50.618;10.642;2023-06-19T08:38:46;96486.34;;;27.39;19.13
64064;BME280;50314;50.618;10.642;2023-06-19T08:41:17;96487.59;;;27.36;18.94
64064;BME280;50314;50.618;10.642;2023-06-19T08:43:46;96486.78;;;27.36;19.08
64064;BME280;50314;50.618;10.642;2023-06-19T08:46:17;96484.28;;;27.34;19.88
64064;BME280;50314;50.618;10.642;2023-06-19T08:48:43;96479.13;;;27.33;20.22
64064;BME280;50314;50.618;10.642;2023-06-19T08:51:09;96483.91;;;27.31;20.32
64064;BME280;50314;50.618;10.642;2023-06-19T08:53:37;96471.47;;;27.30;20.12
64064;BME280;50314;50.618;10.642;2023-06-19T08:56:08;96477.94;;;27.29;19.95
64064;BME280;50314;50.618;10.642;2023-06-19T08:58:34;96482.72;;;27.27;20.23
64064;BME280;50314;50.618;10.642;2023-06-19T09:00:59;96472.38;;;27.24;20.34
64064;BME280;50314;50.618;10.642;2023-06-19T09:03:25;96470.72;;;27.23;20.58
64064;BME280;50314;50.618;10.642;2023-06-19T09:05:50;96469.66;;;27.24;20.17
64064;BME280;50314;50.618;10.642;2023-06-19T09:08:17;96471.53;;;27.23;20.21
64064;BME280;50314;50.618;10.642;2023-06-19T09:10:43;96468.00;;;27.23;20.07
64064;BME280;50314;50.618;10.642;2023-06-19T09:13:18;96469.06;;;27.22;19.96
64064;BME280;50314;50.618;10.642;2023-06-19T09:15:44;96472.00;;;27.20;20.08
64064;BME280;50314;50.618;10.642;2023-06-19T09:18:10;96478.44;;;27.19;20.46
64064;BME280;50314;50.618;10.642;2023-06-19T09:20:41;96484.06;;;27.17;20.52
64064;BME280;50314;50.618;10.642;2023-06-19T09:23:11;96480.34;;;27.18;20.37
64064;BME280;50314;50.618;10.642;2023-06-19T09:25:47;96486.84;;;27.11;20.33
64064;BME280;50314;50.618;10.642;2023-06-19T09:28:20;96476.88;;;27.11;20.34
64064;BME280;50314;50.618;10.642;2023-06-19T09:31:02;96481.06;;;27.07;20.41
64064;BME280;50314;50.618;10.642;2023-06-19T09:33:29;96468.78;;;27.11;20.62
64064;BME280;50314;50.618;10.642;2023-06-19T09:35:56;96462.50;;;27.11;20.66
64064;BME280;50314;50.618;10.642;2023-06-19T09:38:27;96463.81;;;27.08;20.99
64064;BME280;50314;50.618;10.642;2023-06-19T09:40:53;96462.50;;;27.11;21.09
64064;BME280;50314;50.618;10.642;2023-06-19T09:43:23;96461.94;;;27.09;20.75
64064;BME280;50314;50.618;10.642;2023-06-19T09:45:50;96458.78;;;27.12;21.03
64064;BME280;50314;50.618;10.642;2023-06-19T09:48:24;96457.09;;;27.11;20.95
64064;BME280;50314;50.618;10.642;2023-06-19T09:50:54;96461.03;;;27.15;20.87
64064;BME280;50314;50.618;10.642;2023-06-19T09:53:24;96457.03;;;27.17;20.86
64064;BME280;50314;50.618;10.642;2023-06-19T09:55:49;96458.47;;;27.20;20.70
64064;BME280;50314;50.618;10.642;2023-06-19T09:58:18;96464.13;;;27.18;21.40
64064;BME280;50314;50.618;10.642;2023-06-19T10:00:45;96462.44;;;27.17;21.07
64064;BME280;50314;50.618;10.642;2023-06-19T10:03:12;96461.63;;;27.17;21.12
64064;BME280;50314;50.618;10.642;2023-06-19T10:05:37;96468.78;;;27.11;21.52
64064;BME280;50314;50.618;10.642;2023-06-19T10:08:03;96475.75;;;27.19;21.21
64064;BME280;50314;50.618;10.642;2023-06-19T10:10:30;96475.75;;;27.19;21.05
64064;BME280;50314;50.618;10.642;2023-06-19T10:12:58;96477.31;;;27.27;21.40
64064;BME280;50314;50.618;10.642;2023-06-19T10:15:26;96467.94;;;27.29;20.87
64064;BME280;50314;50.618;10.642;2023-06-19T10:18:04;96469.22;;;27.27;21.52
64064;BME280;50314;50.618;10.642;2023-06-19T10:23:03;96471.00;;;27.33;21.28
64064;BME280;50314;50.618;10.642;2023-06-19T10:25:32;96477.25;;;27.33;21.10
64064;BME280;50314;50.618;10.642;2023-06-19T10:27:58;96489.94;;;27.33;21.43
64064;BME280;50314;50.618;10.642;2023-06-19T10:30:24;96481.81;;;27.33;21.17
64064;BME280;50314;50.618;10.642;2023-06-19T10:32:50;96483.25;;;27.35;21.20
64064;BME280;50314;50.618;10.642;2023-06-19T10:35:17;96487.38;;;27.38;21.14
64064;BME280;50314;50.618;10.642;2023-06-19T10:37:43;96486.91;;;27.41;21.13
64064;BME280;50314;50.618;10.642;2023-06-19T10:40:12;96482.56;;;27.40;20.55
64064;BME280;50314;50.618;10.642;2023-06-19T10:42:38;96490.06;;;27.38;21.00
64064;BME280;50314;50.618;10.642;2023-06-19T10:45:06;96486.78;;;27.36;20.63
64064;BME280;50314;50.618;10.642;2023-06-19T10:47:35;96483.25;;;27.35;20.93
64064;BME280;50314;50.618;10.642;2023-06-19T10:50:01;96475.72;;;27.37;20.71
64064;BME280;50314;50.618;10.642;2023-06-19T10:52:29;96481.13;;;27.37;20.75
64064;BME280;50314;50.618;10.642;2023-06-19T10:54:55;96483.63;;;27.39;20.86
64064;BME280;50314;50.618;10.642;2023-06-19T10:57:30;96481.81;;;27.33;21.07
64064;BME280;50314;50.618;10.642;2023-06-19T10:59:57;96489.50;;;27.36;20.96
64064;BME280;50314;50.618;10.642;2023-06-19T11:02:24;96486.19;;;27.34;20.53
64064;BME280;50314;50.618;10.642;2023-06-19T11:04:54;96480.19;;;27.32;20.68
64064;BME280;50314;50.618;10.642;2023-06-19T11:07:19;96479.72;;;27.35;20.54
64064;BME280;50314;50.618;10.642;2023-06-19T11:09:45;96471.38;;;27.36;20.74
64064;BME280;50314;50.618;10.642;2023-06-19T11:12:11;96469.50;;;27.37;20.50
64064;BME280;50314;50.618;10.642;2023-06-19T11:14:37;96467.88;;;27.36;20.53
64064;BME280;50314;50.618;10.642;2023-06-19T11:17:06;96471.84;;;27.33;20.90
64064;BME280;50314;50.618;10.642;2023-06-19T11:19:32;96481.81;;;27.33;21.08
64064;BME280;50314;50.618;10.642;2023-06-19T11:21:59;96470.19;;;27.32;20.63
64064;BME280;50314;50.618;10.642;2023-06-19T11:24:28;96467.69;;;27.31;20.83
64064;BME280;50314;50.618;10.642;2023-06-19T11:26:56;96474.53;;;27.33;21.45
64064;BME280;50314;50.618;10.642;2023-06-19T11:29:29;96472.22;;;27.37;20.69
64064;BME280;50314;50.618;10.642;2023-06-19T11:32:29;96472.44;;;27.35;21.27
64064;BME280;50314;50.618;10.642;2023-06-19T11:34:56;96475.06;;;27.42;21.05
64064;BME280;50314;50.618;10.642;2023-06-19T11:37:22;96461.31;;;27.44;21.45
64064;BME280;50314;50.618;10.642;2023-06-19T11:39:49;96462.13;;;27.44;21.35
64064;BME280;50314;50.618;10.642;2023-06-19T11:42:15;96468.16;;;27.46;21.45
64064;BME280;50314;50.618;10.642;2023-06-19T11:45:02;96469.66;;;27.42;21.02
64064;BME280;50314;50.618;10.642;2023-06-19T11:47:32;96468.72;;;27.48;21.24
64064;BME280;50314;50.618;10.642;2023-06-19T11:49:58;96466.66;;;27.50;21.09
64064;BME280;50314;50.618;10.642;2023-06-19T11:52:24;96460.81;;;27.53;20.71
64064;BME280;50314;50.618;10.642;2023-06-19T11:54:50;96456.00;;;27.55;21.01
64064;BME280;50314;50.618;10.642;2023-06-19T11:57:15;96459.53;;;27.56;21.36
64064;BME280;50314;50.618;10.642;2023-06-19T11:59:41;96459.28;;;27.57;21.14
64064;BME280;50314;50.618;10.642;2023-06-19T12:02:08;96458.63;;;27.62;20.72
64064;BME280;50314;50.618;10.642;2023-06-19T12:04:34;96464.41;;;27.66;21.08
64064;BME280;50314;50.618;10.642;2023-06-19T12:06:59;96453.72;;;27.71;21.14
64064;BME280;50314;50.618;10.642;2023-06-19T12:09:25;96449.28;;;27.76;21.57
64064;BME280;50314;50.618;10.642;2023-06-19T12:11:50;96448.81;;;27.79;21.08
64064;BME280;50314;50.618;10.642;2023-06-19T12:14:16;96454.13;;;27.86;21.42
64064;BME280;50314;50.618;10.642;2023-06-19T12:16:41;96456.84;;;27.86;21.20
64064;BME280;50314;50.618;10.642;2023-06-19T12:19:07;96448.28;;;27.89;21.39
64064;BME280;50314;50.618;10.642;2023-06-19T12:21:32;96448.28;;;27.89;21.35
64064;BME280;50314;50.618;10.642;2023-06-19T12:23:57;96448.28;;;27.89;21.42
64064;BME280;50314;50.618;10.642;2023-06-19T12:26:23;96451.56;;;27.91;21.61
64064;BME280;50314;50.618;10.642;2023-06-19T12:28:51;96450.47;;;27.92;21.69
64064;BME280;50314;50.618;10.642;2023-06-19T12:31:17;96442.97;;;27.94;21.34
64064;BME280;50314;50.618;10.642;2023-06-19T12:33:43;96436.31;;;27.97;21.29
64064;BME280;50314;50.618;10.642;2023-06-19T12:36:13;96435.25;;;27.98;21.65
64064;BME280;50314;50.618;10.642;2023-06-19T12:38:40;96431.84;;;28.02;21.49
64064;BME280;50314;50.618;10.642;2023-06-19T12:41:05;96438.91;;;28.03;21.71
64064;BME280;50314;50.618;10.642;2023-06-19T12:43:30;96442.19;;;28.05;21.49
64064;BME280;50314;50.618;10.642;2023-06-19T12:45:59;96446.13;;;28.09;21.36
64064;BME280;50314;50.618;10.642;2023-06-19T12:48:26;96444.25;;;28.10;21.63
64064;BME280;50314;50.618;10.642;2023-06-19T12:50:51;96442.19;;;28.05;21.49